createdAt,value
2019-04-24T00:06:07.783Z,69.73
2019-04-24T00:08:30.261Z,69.35
2019-04-24T00:13:50.978Z,61.93
2019-04-24T00:16:15.524Z,64.19
2019-04-24T00:19:10.937Z,64.82
2019-04-24T00:21:50.531Z,65.20
2019-04-24T00:36:54.629Z,61.38
2019-04-24T00:39:20.567Z,56.85
2019-04-24T00:41:58.659Z,57.22
2019-04-24T00:44:26.606Z,55.29
2019-04-24T00:47:00.871Z,53.59
2019-04-24T00:49:27.482Z,53.10
2019-04-24T00:52:06.879Z,56.86
2019-04-24T00:57:00.503Z,58.45
2019-04-24T00:59:28.098Z,60.65
2019-04-24T01:05:30.133Z,58.65
2019-04-24T01:10:45.459Z,60.35
2019-04-24T01:16:00.746Z,65.28
2019-04-24T01:18:21.792Z,65.13
2019-04-24T01:21:05.149Z,66.01
2019-04-24T01:26:01.400Z,70.09
2019-04-24T01:28:37.179Z,68.82
2019-04-24T01:31:13.470Z,68.33
2019-04-24T01:33:48.316Z,64.31
2019-04-24T01:36:32.589Z,64.36
2019-04-24T01:39:25.956Z,62.80
2019-04-24T01:41:48.721Z,61.33
2019-04-24T01:49:31.086Z,58.77
2019-04-24T01:52:14.668Z,58.51
2019-04-24T01:56:59.897Z,57.17
2019-04-24T01:59:35.017Z,57.81
2019-04-24T02:02:08.233Z,57.31
2019-04-24T02:04:33.987Z,57.15
2019-04-24T02:07:32.654Z,55.95
2019-04-24T02:15:28.859Z,56.41
2019-04-24T02:18:02.026Z,56.27
2019-04-24T02:23:06.523Z,55.97
2019-04-24T02:30:58.140Z,56.02
2019-04-24T02:36:31.764Z,56.90
2019-04-24T02:41:41.417Z,57.24
2019-04-24T02:44:09.269Z,57.77
2019-04-24T02:46:27.146Z,58.15
2019-04-24T02:49:23.182Z,59.35
2019-04-24T02:51:26.710Z,60.14
2019-04-24T02:54:12.209Z,59.90
2019-04-24T02:56:36.143Z,60.77
2019-04-24T03:01:39.796Z,57.78
2019-04-24T03:04:28.669Z,61.07
2019-04-24T03:12:22.955Z,61.84
2019-04-24T03:14:29.065Z,60.62
2019-04-24T03:19:45.925Z,63.79
2019-04-24T03:22:15.283Z,63.46
2019-04-24T03:27:40.348Z,63.38
2019-04-24T03:45:27.247Z,66.12
2019-04-24T03:51:12.585Z,66.47
2019-04-24T03:53:13.241Z,66.29
2019-04-24T03:55:51.627Z,66.42
2019-04-24T03:58:23.256Z,66.83
2019-04-24T04:06:05.420Z,66.11
2019-04-24T04:08:44.794Z,67.09
2019-04-24T04:11:01.085Z,66.44
2019-04-24T04:16:08.504Z,67.56
2019-04-24T04:18:41.965Z,68.14
2019-04-24T04:21:11.436Z,67.80
2019-04-24T04:23:58.452Z,67.46
2019-04-24T04:26:42.763Z,67.21
2019-04-24T04:32:24.096Z,66.51
2019-04-24T04:35:02.487Z,66.28
2019-04-24T04:37:28.253Z,66.20
2019-04-24T04:40:37.778Z,66.43
2019-04-24T04:43:01.201Z,66.05
2019-04-24T04:48:25.354Z,66.99
2019-04-24T04:56:26.582Z,67.76
2019-04-24T05:01:56.763Z,62.23
2019-04-24T05:07:22.646Z,47.53
2019-04-24T05:17:08.601Z,38.53
2019-04-24T05:22:08.451Z,35.36
2019-04-24T05:24:47.697Z,35.69
2019-04-24T05:27:31.377Z,35.79
2019-04-24T05:35:29.947Z,33.62
2019-04-24T05:38:19.349Z,33.00
2019-04-24T05:40:50.888Z,32.58
2019-04-24T05:46:08.864Z,32.15
2019-04-24T05:48:46.897Z,32.25
2019-04-24T05:51:19.745Z,32.28
2019-04-24T05:54:21.063Z,32.63
2019-04-24T05:57:17.631Z,31.74
2019-04-24T05:59:38.748Z,32.60
2019-04-24T06:04:46.341Z,31.25
2019-04-24T06:07:52.520Z,31.38
2019-04-24T06:24:03.226Z,30.00
2019-04-24T06:34:21.961Z,34.93
2019-04-24T06:39:58.282Z,40.40
2019-04-24T06:42:45.828Z,41.94
2019-04-24T06:50:28.087Z,39.66
2019-04-24T06:55:03.391Z,39.81
2019-04-24T06:57:52.341Z,38.88
2019-04-24T07:03:35.413Z,39.67
2019-04-24T07:06:10.415Z,40.06
2019-04-24T07:09:06.514Z,38.90
2019-04-24T07:11:42.002Z,38.41
2019-04-24T07:14:11.837Z,39.08
2019-04-24T07:17:18.814Z,37.86
2019-04-24T07:24:56.255Z,37.73
2019-04-24T07:27:05.155Z,38.21
2019-04-24T07:29:49.139Z,36.71
2019-04-24T07:37:58.883Z,33.16
2019-04-24T07:40:13.603Z,34.12
2019-04-24T07:43:11.692Z,31.46
2019-04-24T07:45:38.075Z,32.82
2019-04-24T07:47:55.024Z,32.61
2019-04-24T07:51:00.948Z,32.30
2019-04-24T07:53:53.430Z,31.59
2019-04-24T07:56:20.745Z,32.41
2019-04-24T07:59:05.529Z,33.15
2019-04-24T08:01:29.750Z,32.73
2019-04-24T08:03:58.957Z,32.62
2019-04-24T08:09:00.668Z,33.46
2019-04-24T08:11:42.420Z,35.67
2019-04-24T08:14:01.182Z,33.83
2019-04-24T08:16:39.580Z,35.19
2019-04-24T08:19:40.133Z,36.09
2019-04-24T08:21:58.867Z,34.21
2019-04-24T08:24:48.565Z,36.08
2019-04-24T08:26:59.952Z,35.95
2019-04-24T08:29:31.797Z,35.03
2019-04-24T08:45:39.709Z,37.09
2019-04-24T08:48:11.145Z,38.02
2019-04-24T08:51:07.510Z,35.09
2019-04-24T09:01:03.304Z,35.12
2019-04-24T09:03:47.968Z,35.63
2019-04-24T09:06:03.895Z,35.17
2019-04-24T09:11:39.963Z,37.22
2019-04-24T09:16:45.097Z,34.03
2019-04-24T09:19:16.921Z,34.65
2019-04-24T09:21:42.776Z,32.90
2019-04-24T09:28:10.229Z,35.35
2019-04-24T09:30:19.987Z,33.29
2019-04-24T09:36:03.840Z,33.97
2019-04-24T09:41:39.907Z,32.34
2019-04-24T09:46:19.702Z,31.84
2019-04-24T09:51:23.264Z,33.13
2019-04-24T10:05:00.882Z,31.11
2019-04-24T10:07:35.627Z,30.75
2019-04-24T10:10:06.652Z,33.46
2019-04-24T10:12:48.062Z,30.89
2019-04-24T10:15:05.896Z,29.93
2019-04-24T10:17:50.510Z,29.80
2019-04-24T10:23:29.303Z,29.67
2019-04-24T10:25:52.366Z,28.98
2019-04-24T10:28:42.581Z,30.48
2019-04-24T10:31:19.244Z,29.71
2019-04-24T10:45:28.398Z,29.08
2019-04-24T10:51:43.108Z,26.24
2019-04-24T10:53:45.995Z,25.58
2019-04-24T10:58:53.502Z,25.57
2019-04-24T11:02:05.107Z,23.65
2019-04-24T11:04:27.220Z,24.37
2019-04-24T11:16:18.660Z,23.17
2019-04-24T11:19:05.983Z,23.17
2019-04-24T11:21:50.558Z,23.09
2019-04-24T11:24:17.209Z,23.31
2019-04-24T11:26:38.000Z,22.87
2019-04-24T11:29:36.051Z,22.84
2019-04-24T11:32:21.314Z,22.59
2019-04-24T11:37:28.084Z,23.01
2019-04-24T11:42:49.108Z,22.91
2019-04-24T11:45:38.565Z,22.41
2019-04-24T11:48:40.139Z,23.61
2019-04-24T11:53:23.921Z,22.67
2019-04-24T11:56:20.360Z,21.54
2019-04-24T12:01:55.333Z,22.20
2019-04-24T12:04:47.495Z,22.97
2019-04-24T12:07:24.406Z,22.33
2019-04-24T12:09:56.149Z,22.30
2019-04-24T12:12:16.747Z,21.77
2019-04-24T12:15:03.682Z,21.18
2019-04-24T12:18:11.949Z,20.85
2019-04-24T12:23:26.279Z,21.12
2019-04-24T12:26:02.725Z,21.16
2019-04-24T12:30:55.489Z,21.12
2019-04-24T12:36:26.744Z,20.25
2019-04-24T12:38:52.071Z,20.37
2019-04-24T12:41:32.629Z,19.82
2019-04-24T12:44:18.378Z,21.11
2019-04-24T12:47:03.122Z,21.14
2019-04-24T12:49:33.151Z,21.12
2019-04-24T12:54:33.313Z,19.05
2019-04-24T12:57:26.369Z,19.17
2019-04-24T12:59:55.662Z,19.68
2019-04-24T13:03:05.290Z,19.51
2019-04-24T13:05:41.145Z,19.12
2019-04-24T13:08:19.275Z,20.00
2019-04-24T13:13:40.992Z,19.62
2019-04-24T13:16:13.726Z,20.20
2019-04-24T13:19:09.268Z,20.29
2019-04-24T13:21:04.689Z,20.33
2019-04-24T13:23:48.035Z,22.48
2019-04-24T13:26:40.496Z,22.94
2019-04-24T13:31:56.194Z,25.25
2019-04-24T13:34:29.432Z,25.24
2019-04-24T13:37:02.815Z,27.19
2019-04-24T13:39:34.538Z,27.68
2019-04-24T13:42:01.826Z,28.91
2019-04-24T13:44:28.096Z,28.07
2019-04-24T13:47:04.755Z,28.49
2019-04-24T13:49:30.312Z,29.71
2019-04-24T13:54:32.113Z,30.13
2019-04-24T13:59:44.355Z,31.52
2019-04-24T14:02:20.011Z,32.11
2019-04-24T14:04:39.116Z,31.37
2019-04-24T14:07:15.647Z,32.30
2019-04-24T14:10:23.811Z,32.67
2019-04-24T14:15:01.837Z,32.90
2019-04-24T14:17:19.338Z,33.85
2019-04-24T14:20:37.765Z,33.81
2019-04-24T14:22:58.406Z,33.86
2019-04-24T14:28:10.836Z,33.67
2019-04-24T14:30:19.118Z,33.98
2019-04-24T14:33:07.359Z,34.21
2019-04-24T14:38:02.832Z,34.12
2019-04-24T14:40:29.599Z,34.45
2019-04-24T14:43:07.353Z,34.68
2019-04-24T14:45:58.663Z,34.99
2019-04-24T14:48:16.714Z,34.58
2019-04-24T14:50:47.703Z,34.35
2019-04-24T14:53:19.782Z,34.70
2019-04-24T14:55:53.637Z,35.41
2019-04-24T14:58:19.197Z,35.51
2019-04-24T15:00:55.821Z,34.89
2019-04-24T15:03:21.023Z,35.01
2019-04-24T15:08:36.776Z,36.19
2019-04-24T15:21:16.471Z,36.22
2019-04-24T15:24:14.389Z,36.36
2019-04-24T15:26:33.234Z,36.30
2019-04-24T15:29:00.525Z,36.20
2019-04-24T15:31:13.996Z,36.65
2019-04-24T15:34:00.928Z,37.97
2019-04-24T15:36:22.411Z,38.23
2019-04-24T15:39:02.849Z,38.23
2019-04-24T15:41:38.104Z,38.41
2019-04-24T15:43:53.509Z,38.00
2019-04-24T15:46:25.605Z,38.50
2019-04-24T15:49:04.167Z,39.13
2019-04-24T15:51:30.604Z,39.24
2019-04-24T15:53:34.984Z,39.14
2019-04-24T15:56:04.689Z,40.01
2019-04-24T15:58:44.465Z,40.95
2019-04-24T16:01:37.081Z,40.95
2019-04-24T16:04:10.090Z,41.16
2019-04-24T16:06:26.602Z,41.57
2019-04-24T16:08:59.689Z,42.40
2019-04-24T16:11:29.279Z,42.56
2019-04-24T16:14:10.286Z,43.13
2019-04-24T16:17:08.036Z,43.47
2019-04-24T16:22:05.096Z,43.87
2019-04-24T16:27:09.706Z,44.57
2019-04-24T16:29:36.314Z,44.58
2019-04-24T16:34:41.130Z,45.72
2019-04-24T16:37:17.169Z,47.27
2019-04-24T16:40:27.698Z,46.77
2019-04-24T16:43:08.655Z,47.00
2019-04-24T16:45:10.085Z,45.64
2019-04-24T16:52:54.815Z,45.77
2019-04-24T16:55:19.707Z,45.71
2019-04-24T17:05:29.642Z,45.71
2019-04-24T17:08:09.287Z,46.16
2019-04-24T17:21:10.176Z,47.07
2019-04-24T17:23:18.074Z,47.00
2019-04-24T17:28:29.630Z,46.89
2019-04-24T17:31:02.578Z,46.96
2019-04-24T17:36:07.929Z,47.22
2019-04-24T17:38:40.402Z,47.06
2019-04-24T17:41:15.398Z,47.31
2019-04-24T17:46:41.096Z,47.80
2019-04-24T17:49:19.169Z,47.64
2019-04-24T17:52:09.253Z,48.12
2019-04-24T17:54:19.558Z,47.80
2019-04-24T17:58:49.398Z,49.27
2019-04-24T18:01:19.187Z,48.52
2019-04-24T18:03:50.253Z,48.29
2019-04-24T18:06:21.658Z,48.66
2019-04-24T18:08:52.579Z,49.19
2019-04-24T18:11:22.425Z,49.23
2019-04-24T18:13:52.259Z,49.70
2019-04-24T18:16:22.263Z,50.24
2019-04-24T18:18:52.081Z,49.92
2019-04-24T18:21:21.794Z,50.01
2019-04-24T18:23:52.210Z,49.94
2019-04-24T18:26:36.949Z,50.22
2019-04-24T18:29:07.061Z,51.16
2019-04-24T18:31:36.932Z,51.43
2019-04-24T18:34:06.543Z,52.11
2019-04-24T18:36:36.219Z,52.86
2019-04-24T18:39:08.123Z,52.91
2019-04-24T18:41:37.781Z,53.27
2019-04-24T18:44:08.307Z,52.95
2019-04-24T18:46:38.101Z,52.91
2019-04-24T18:49:08.556Z,53.89
2019-04-24T18:51:38.436Z,53.95
2019-04-24T18:54:08.995Z,54.38
2019-04-24T18:56:39.364Z,55.23
2019-04-24T18:59:09.354Z,55.57
2019-04-24T19:01:39.474Z,56.29
2019-04-24T19:04:11.908Z,56.23
2019-04-24T19:06:41.965Z,56.36
2019-04-24T19:09:12.816Z,56.45
2019-04-24T19:11:43.454Z,56.37
2019-04-24T19:14:13.234Z,56.86
2019-04-24T19:16:42.856Z,57.14
2019-04-24T19:19:12.941Z,57.40
2019-04-24T19:21:42.637Z,58.85
2019-04-24T19:24:12.499Z,58.32
2019-04-24T19:26:42.188Z,59.00
2019-04-24T19:29:11.825Z,58.93
2019-04-24T19:31:42.391Z,58.40
2019-04-24T19:34:13.596Z,58.83
2019-04-24T19:36:43.259Z,59.16
2019-04-24T19:39:13.488Z,59.74
2019-04-24T19:41:43.780Z,60.86
2019-04-24T19:44:14.388Z,59.93
2019-04-24T19:46:44.294Z,59.94
2019-04-24T19:49:14.510Z,59.69
2019-04-24T19:51:44.203Z,60.34
2019-04-24T19:54:14.683Z,60.43
2019-04-24T19:56:44.762Z,62.06
2019-04-24T19:59:14.693Z,62.32
2019-04-24T20:01:44.394Z,62.94
2019-04-24T20:04:14.386Z,63.43
2019-04-24T20:06:44.248Z,63.69
2019-04-24T20:09:41.848Z,63.54
2019-04-24T20:12:12.941Z,64.23
2019-04-24T20:14:42.839Z,64.97
2019-04-24T20:17:13.355Z,65.65
2019-04-24T20:19:43.178Z,65.76
2019-04-24T20:22:13.757Z,65.83
2019-04-24T20:24:43.424Z,65.86
2019-04-24T20:27:13.206Z,66.14
2019-04-24T20:29:43.759Z,66.93
2019-04-24T20:32:14.035Z,67.48
2019-04-24T20:34:44.477Z,67.71
2019-04-24T20:37:14.899Z,68.52
2019-04-24T20:39:44.505Z,69.00
2019-04-24T20:42:14.111Z,69.38
2019-04-24T20:44:43.762Z,69.24
2019-04-24T20:47:13.345Z,69.42
2019-04-24T20:49:43.096Z,69.78
2019-04-24T20:52:12.745Z,72.50
2019-04-24T20:54:42.494Z,72.95
2019-04-24T20:57:13.661Z,73.56
2019-04-24T20:59:43.306Z,74.06
2019-04-24T21:02:12.989Z,74.43
2019-04-24T21:04:42.561Z,74.24
2019-04-24T21:07:26.217Z,74.98
2019-04-24T21:10:02.052Z,75.71
2019-04-24T21:12:31.744Z,76.23
2019-04-24T21:15:17.192Z,76.77
2019-04-24T21:17:46.811Z,77.17
2019-04-24T21:20:16.564Z,77.69
2019-04-24T21:22:46.127Z,78.26
2019-04-24T21:25:15.658Z,79.28
2019-04-24T21:27:45.299Z,80.30
2019-04-24T21:30:15.092Z,80.33
2019-04-24T21:32:44.688Z,81.48
2019-04-24T21:35:14.417Z,82.01
2019-04-24T21:37:44.189Z,82.15
2019-04-24T21:40:13.760Z,82.43
2019-04-24T21:42:43.444Z,83.30
2019-04-24T21:45:13.182Z,84.58
2019-04-24T21:47:42.966Z,84.31
2019-04-24T21:50:12.747Z,85.32
2019-04-24T21:52:42.481Z,85.45
2019-04-24T21:55:12.217Z,85.94
2019-04-24T21:57:59.881Z,87.02
2019-04-24T22:00:58.317Z,86.74
2019-04-24T22:03:45.833Z,86.95
2019-04-24T22:06:15.962Z,87.31
2019-04-24T22:08:45.506Z,87.42
2019-04-24T22:11:15.650Z,87.34
2019-04-24T22:13:45.390Z,87.54
2019-04-24T22:16:15.025Z,87.92
2019-04-24T22:18:44.722Z,87.60
2019-04-24T22:21:17.851Z,88.10
2019-04-24T22:23:59.495Z,88.28
2019-04-24T22:26:32.025Z,88.02
2019-04-24T22:29:02.013Z,88.04
2019-04-24T22:31:47.041Z,88.26
2019-04-24T22:34:29.415Z,88.27
2019-04-24T22:36:59.075Z,88.35
2019-04-24T22:39:46.183Z,88.75
2019-04-24T22:42:16.032Z,89.19
2019-04-24T22:44:45.764Z,89.77
2019-04-24T22:47:15.455Z,90.49
2019-04-24T22:49:45.224Z,90.41
2019-04-24T22:52:14.952Z,91.12
2019-04-24T22:54:44.722Z,91.23
2019-04-24T22:57:14.400Z,91.32
2019-04-24T22:59:44.274Z,91.51
2019-04-24T23:02:14.035Z,91.63
2019-04-24T23:04:43.771Z,91.94
2019-04-24T23:07:13.450Z,92.26
2019-04-24T23:09:44.339Z,92.31
2019-04-24T23:12:13.929Z,92.36
2019-04-24T23:14:43.559Z,92.81
2019-04-24T23:17:13.276Z,92.94
2019-04-24T23:19:43.160Z,92.68
2019-04-24T23:22:32.968Z,93.24
2019-04-24T23:25:12.312Z,93.04
2019-04-24T23:27:59.429Z,93.01
2019-04-24T23:30:43.472Z,92.53
2019-04-24T23:33:24.270Z,92.29
2019-04-24T23:35:53.942Z,92.20
2019-04-24T23:38:23.593Z,91.73
2019-04-24T23:40:53.167Z,91.79
2019-04-24T23:43:22.905Z,91.14
2019-04-24T23:45:53.690Z,90.92
2019-04-24T23:48:23.394Z,90.60
2019-04-24T23:50:53.161Z,90.55
2019-04-24T23:53:22.781Z,90.36
2019-04-24T23:55:52.327Z,90.20
2019-04-24T23:58:21.926Z,90.08
